sensor_id;sensor_type;location;lat;lon;timestamp;temperature;humidity
75091;DHT22;63674;48.048;8.306;2023-12-20T00:01:26;4.20;99.90
75091;DHT22;63674;48.048;8.306;2023-12-20T00:03:55;4.20;99.90
75091;DHT22;63674;48.048;8.306;2023-12-20T00:06:23;4.30;99.90
75091;DHT22;63674;48.048;8.306;2023-12-20T00:08:52;4.30;99.90
75091;DHT22;63674;48.048;8.306;2023-12-20T00:11:21;4.30;99.90
75091;DHT22;63674;48.048;8.306;2023-12-20T00:13:51;4.30;99.90
75091;DHT22;63674;48.048;8.306;2023-12-20T00:16:20;4.30;99.90
75091;DHT22;63674;48.048;8.306;2023-12-20T00:18:48;4.30;99.90
75091;DHT22;63674;48.048;8.306;2023-12-20T00:21:17;4.30;99.90
75091;DHT22;63674;48.048;8.306;2023-12-20T00:23:45;4.30;99.90
75091;DHT22;63674;48.048;8.306;2023-12-20T00:26:14;4.30;99.90
75091;DHT22;63674;48.048;8.306;2023-12-20T00:28:43;4.30;99.90
75091;DHT22;63674;48.048;8.306;2023-12-20T00:31:13;4.30;99.90
75091;DHT22;63674;48.048;8.306;2023-12-20T00:33:42;4.30;99.90
75091;DHT22;63674;48.048;8.306;2023-12-20T00:36:11;4.30;99.90
75091;DHT22;63674;48.048;8.306;2023-12-20T00:38:40;4.30;99.90
75091;DHT22;63674;48.048;8.306;2023-12-20T00:41:08;4.30;99.90
75091;DHT22;63674;48.048;8.306;2023-12-20T00:43:37;4.30;99.90
75091;DHT22;63674;48.048;8.306;2023-12-20T00:46:05;4.30;99.90
75091;DHT22;63674;48.048;8.306;2023-12-20T00:48:35;4.20;99.90
75091;DHT22;63674;48.048;8.306;2023-12-20T00:51:04;4.30;99.90
75091;DHT22;63674;48.048;8.306;2023-12-20T00:53:32;4.20;99.90
75091;DHT22;63674;48.048;8.306;2023-12-20T00:56:01;4.20;99.90
75091;DHT22;63674;48.048;8.306;2023-12-20T00:58:29;4.20;99.90
75091;DHT22;63674;48.048;8.306;2023-12-20T01:00:58;4.20;99.90
75091;DHT22;63674;48.048;8.306;2023-12-20T01:03:27;4.20;99.90
75091;DHT22;63674;48.048;8.306;2023-12-20T01:05:56;4.20;99.90
75091;DHT22;63674;48.048;8.306;2023-12-20T01:08:25;4.30;99.90
75091;DHT22;63674;48.048;8.306;2023-12-20T01:10:54;4.30;99.90
75091;DHT22;63674;48.048;8.306;2023-12-20T01:13:22;4.30;99.90
75091;DHT22;63674;48.048;8.306;2023-12-20T01:15:51;4.30;99.90
75091;DHT22;63674;48.048;8.306;2023-12-20T01:18:20;4.30;99.90
75091;DHT22;63674;48.048;8.306;2023-12-20T01:20:49;4.30;99.90
75091;DHT22;63674;48.048;8.306;2023-12-20T01:23:19;4.40;99.90
75091;DHT22;63674;48.048;8.306;2023-12-20T01:25:48;4.40;99.90
75091;DHT22;63674;48.048;8.306;2023-12-20T01:28:16;4.40;99.90
75091;DHT22;63674;48.048;8.306;2023-12-20T01:30:45;4.40;99.90
75091;DHT22;63674;48.048;8.306;2023-12-20T01:33:14;4.30;99.90
75091;DHT22;63674;48.048;8.306;2023-12-20T01:35:42;4.40;99.90
75091;DHT22;63674;48.048;8.306;2023-12-20T01:38:11;4.30;99.90
75091;DHT22;63674;48.048;8.306;2023-12-20T01:40:40;4.30;99.90
75091;DHT22;63674;48.048;8.306;2023-12-20T01:43:10;4.30;99.90
75091;DHT22;63674;48.048;8.306;2023-12-20T01:45:40;4.40;99.90
75091;DHT22;63674;48.048;8.306;2023-12-20T01:48:09;4.30;99.90
75091;DHT22;63674;48.048;8.306;2023-12-20T01:50:38;4.30;99.90
75091;DHT22;63674;48.048;8.306;2023-12-20T01:53:08;4.30;99.90
75091;DHT22;63674;48.048;8.306;2023-12-20T01:55:40;4.30;99.90
75091;DHT22;63674;48.048;8.306;2023-12-20T01:58:09;4.20;99.90
75091;DHT22;63674;48.048;8.306;2023-12-20T02:00:38;4.20;99.90
75091;DHT22;63674;48.048;8.306;2023-12-20T02:03:07;4.20;99.90
75091;DHT22;63674;48.048;8.306;2023-12-20T02:05:37;4.20;99.90
75091;DHT22;63674;48.048;8.306;2023-12-20T02:08:07;4.10;99.90
75091;DHT22;63674;48.048;8.306;2023-12-20T02:10:36;4.10;99.90
75091;DHT22;63674;48.048;8.306;2023-12-20T02:13:06;4.10;99.90
75091;DHT22;63674;48.048;8.306;2023-12-20T02:15:34;4.10;99.90
75091;DHT22;63674;48.048;8.306;2023-12-20T02:18:05;4.00;99.90
75091;DHT22;63674;48.048;8.306;2023-12-20T02:20:34;3.90;99.90
75091;DHT22;63674;48.048;8.306;2023-12-20T02:23:04;3.90;99.90
75091;DHT22;63674;48.048;8.306;2023-12-20T02:25:32;3.90;99.90
75091;DHT22;63674;48.048;8.306;2023-12-20T02:28:01;3.80;99.90
75091;DHT22;63674;48.048;8.306;2023-12-20T02:30:30;3.80;99.90
75091;DHT22;63674;48.048;8.306;2023-12-20T02:32:59;3.80;99.90
75091;DHT22;63674;48.048;8.306;2023-12-20T02:35:28;3.70;99.90
75091;DHT22;63674;48.048;8.306;2023-12-20T02:37:57;3.70;99.90
75091;DHT22;63674;48.048;8.306;2023-12-20T02:40:26;3.70;99.90
75091;DHT22;63674;48.048;8.306;2023-12-20T02:42:55;3.60;99.90
75091;DHT22;63674;48.048;8.306;2023-12-20T02:45:23;3.60;99.90
75091;DHT22;63674;48.048;8.306;2023-12-20T02:47:51;3.50;99.90
75091;DHT22;63674;48.048;8.306;2023-12-20T02:50:20;3.50;99.90
75091;DHT22;63674;48.048;8.306;2023-12-20T02:52:48;3.50;99.90
75091;DHT22;63674;48.048;8.306;2023-12-20T02:55:36;3.50;99.90
75091;DHT22;63674;48.048;8.306;2023-12-20T02:58:24;3.40;99.90
75091;DHT22;63674;48.048;8.306;2023-12-20T03:01:11;3.50;99.90
75091;DHT22;63674;48.048;8.306;2023-12-20T03:03:59;3.40;99.90
75091;DHT22;63674;48.048;8.306;2023-12-20T03:06:46;3.50;99.90
75091;DHT22;63674;48.048;8.306;2023-12-20T03:09:33;3.40;99.90
75091;DHT22;63674;48.048;8.306;2023-12-20T03:12:42;3.40;99.90
75091;DHT22;63674;48.048;8.306;2023-12-20T03:15:29;3.40;99.90
75091;DHT22;63674;48.048;8.306;2023-12-20T03:18:18;3.40;99.90
75091;DHT22;63674;48.048;8.306;2023-12-20T03:21:06;3.40;99.90
75091;DHT22;63674;48.048;8.306;2023-12-20T03:23:53;3.40;99.90
75091;DHT22;63674;48.048;8.306;2023-12-20T03:26:40;3.40;99.90
75091;DHT22;63674;48.048;8.306;2023-12-20T03:29:28;3.30;99.90
75091;DHT22;63674;48.048;8.306;2023-12-20T03:32:16;3.40;99.90
75091;DHT22;63674;48.048;8.306;2023-12-20T03:35:03;3.30;99.90
75091;DHT22;63674;48.048;8.306;2023-12-20T03:37:51;3.30;99.90
75091;DHT22;63674;48.048;8.306;2023-12-20T03:40:39;3.20;99.90
75091;DHT22;63674;48.048;8.306;2023-12-20T03:43:26;3.30;99.90
75091;DHT22;63674;48.048;8.306;2023-12-20T03:46:14;3.20;99.90
75091;DHT22;63674;48.048;8.306;2023-12-20T03:49:02;3.20;99.90
75091;DHT22;63674;48.048;8.306;2023-12-20T03:51:49;3.20;99.90
75091;DHT22;63674;48.048;8.306;2023-12-20T03:54:36;3.20;99.90
75091;DHT22;63674;48.048;8.306;2023-12-20T03:57:23;3.10;99.90
75091;DHT22;63674;48.048;8.306;2023-12-20T04:00:11;3.10;99.90
75091;DHT22;63674;48.048;8.306;2023-12-20T04:03:00;3.10;99.90
75091;DHT22;63674;48.048;8.306;2023-12-20T04:05:47;3.00;99.90
75091;DHT22;63674;48.048;8.306;2023-12-20T04:08:15;3.00;99.90
75091;DHT22;63674;48.048;8.306;2023-12-20T04:10:44;3.00;99.90
75091;DHT22;63674;48.048;8.306;2023-12-20T04:13:12;2.90;99.90
75091;DHT22;63674;48.048;8.306;2023-12-20T04:15:41;2.90;99.90
75091;DHT22;63674;48.048;8.306;2023-12-20T04:18:11;2.90;99.90
75091;DHT22;63674;48.048;8.306;2023-12-20T04:20:39;2.90;99.90
75091;DHT22;63674;48.048;8.306;2023-12-20T04:23:08;2.90;99.90
75091;DHT22;63674;48.048;8.306;2023-12-20T04:25:36;2.80;99.90
75091;DHT22;63674;48.048;8.306;2023-12-20T04:28:05;2.80;99.90
75091;DHT22;63674;48.048;8.306;2023-12-20T04:30:34;2.80;99.90
75091;DHT22;63674;48.048;8.306;2023-12-20T04:33:03;2.70;99.90
75091;DHT22;63674;48.048;8.306;2023-12-20T04:35:33;2.80;99.90
75091;DHT22;63674;48.048;8.306;2023-12-20T04:38:02;2.70;99.90
75091;DHT22;63674;48.048;8.306;2023-12-20T04:40:30;2.70;99.90
75091;DHT22;63674;48.048;8.306;2023-12-20T04:42:59;2.70;99.90
75091;DHT22;63674;48.048;8.306;2023-12-20T04:45:27;2.80;99.90
75091;DHT22;63674;48.048;8.306;2023-12-20T04:47:56;2.70;99.90
75091;DHT22;63674;48.048;8.306;2023-12-20T04:50:25;2.90;99.90
75091;DHT22;63674;48.048;8.306;2023-12-20T04:52:55;2.70;99.90
75091;DHT22;63674;48.048;8.306;2023-12-20T04:55:23;2.70;99.90
75091;DHT22;63674;48.048;8.306;2023-12-20T04:57:52;2.70;99.90
75091;DHT22;63674;48.048;8.306;2023-12-20T05:00:21;2.70;99.90
75091;DHT22;63674;48.048;8.306;2023-12-20T05:02:50;2.70;99.90
75091;DHT22;63674;48.048;8.306;2023-12-20T05:05:19;2.70;99.90
75091;DHT22;63674;48.048;8.306;2023-12-20T05:07:48;2.70;99.90
75091;DHT22;63674;48.048;8.306;2023-12-20T05:10:18;2.70;99.90
75091;DHT22;63674;48.048;8.306;2023-12-20T05:12:47;2.70;99.90
75091;DHT22;63674;48.048;8.306;2023-12-20T05:15:15;2.70;99.90
75091;DHT22;63674;48.048;8.306;2023-12-20T05:17:44;2.70;99.90
75091;DHT22;63674;48.048;8.306;2023-12-20T05:20:13;2.70;99.90
75091;DHT22;63674;48.048;8.306;2023-12-20T05:22:42;2.70;99.90
75091;DHT22;63674;48.048;8.306;2023-12-20T05:25:12;2.70;99.90
75091;DHT22;63674;48.048;8.306;2023-12-20T05:27:42;2.70;99.90
75091;DHT22;63674;48.048;8.306;2023-12-20T05:30:11;2.70;99.90
75091;DHT22;63674;48.048;8.306;2023-12-20T05:32:40;2.70;99.90
75091;DHT22;63674;48.048;8.306;2023-12-20T05:35:09;2.70;99.90
75091;DHT22;63674;48.048;8.306;2023-12-20T05:37:38;2.70;99.90
75091;DHT22;63674;48.048;8.306;2023-12-20T05:40:07;2.70;99.90
75091;DHT22;63674;48.048;8.306;2023-12-20T05:42:37;2.70;99.90
75091;DHT22;63674;48.048;8.306;2023-12-20T05:45:08;2.80;99.90
75091;DHT22;63674;48.048;8.306;2023-12-20T05:47:37;2.80;99.90
75091;DHT22;63674;48.048;8.306;2023-12-20T05:50:07;2.80;99.90
75091;DHT22;63674;48.048;8.306;2023-12-20T05:52:36;2.80;99.90
75091;DHT22;63674;48.048;8.306;2023-12-20T05:55:04;2.80;99.90
75091;DHT22;63674;48.048;8.306;2023-12-20T05:57:33;2.80;99.90
75091;DHT22;63674;48.048;8.306;2023-12-20T06:00:04;2.80;99.90
75091;DHT22;63674;48.048;8.306;2023-12-20T06:02:35;2.80;99.90
75091;DHT22;63674;48.048;8.306;2023-12-20T06:05:05;2.80;99.90
75091;DHT22;63674;48.048;8.306;2023-12-20T06:07:34;2.90;99.90
75091;DHT22;63674;48.048;8.306;2023-12-20T06:10:04;2.90;99.90
75091;DHT22;63674;48.048;8.306;2023-12-20T06:12:34;2.90;99.90
75091;DHT22;63674;48.048;8.306;2023-12-20T06:15:03;3.00;99.90
75091;DHT22;63674;48.048;8.306;2023-12-20T06:17:32;3.00;99.90
75091;DHT22;63674;48.048;8.306;2023-12-20T06:20:04;3.10;99.90
75091;DHT22;63674;48.048;8.306;2023-12-20T06:22:55;3.00;99.90
75091;DHT22;63674;48.048;8.306;2023-12-20T06:25:24;3.10;99.90
75091;DHT22;63674;48.048;8.306;2023-12-20T06:27:53;3.00;99.90
75091;DHT22;63674;48.048;8.306;2023-12-20T06:30:22;3.00;99.90
75091;DHT22;63674;48.048;8.306;2023-12-20T06:32:52;3.10;99.90
75091;DHT22;63674;48.048;8.306;2023-12-20T06:35:21;3.10;99.90
75091;DHT22;63674;48.048;8.306;2023-12-20T06:37:51;3.10;99.90
75091;DHT22;63674;48.048;8.306;2023-12-20T06:40:19;3.10;99.90
75091;DHT22;63674;48.048;8.306;2023-12-20T06:42:48;3.10;99.90
75091;DHT22;63674;48.048;8.306;2023-12-20T06:45:31;3.10;99.90
75091;DHT22;63674;48.048;8.306;2023-12-20T06:47:59;3.10;99.90
75091;DHT22;63674;48.048;8.306;2023-12-20T06:50:29;3.10;99.90
75091;DHT22;63674;48.048;8.306;2023-12-20T06:52:58;3.20;99.90
75091;DHT22;63674;48.048;8.306;2023-12-20T06:55:26;3.10;99.90
75091;DHT22;63674;48.048;8.306;2023-12-20T06:57:55;3.10;99.90
75091;DHT22;63674;48.048;8.306;2023-12-20T07:00:23;3.20;99.90
75091;DHT22;63674;48.048;8.306;2023-12-20T07:02:52;3.20;99.90
75091;DHT22;63674;48.048;8.306;2023-12-20T07:05:21;3.20;99.90
75091;DHT22;63674;48.048;8.306;2023-12-20T07:07:50;3.30;99.90
75091;DHT22;63674;48.048;8.306;2023-12-20T07:10:19;3.30;99.90
75091;DHT22;63674;48.048;8.306;2023-12-20T07:12:48;3.30;99.90
75091;DHT22;63674;48.048;8.306;2023-12-20T07:15:18;3.30;99.90
75091;DHT22;63674;48.048;8.306;2023-12-20T07:17:46;3.30;99.90
75091;DHT22;63674;48.048;8.306;2023-12-20T07:20:15;3.30;99.90
75091;DHT22;63674;48.048;8.306;2023-12-20T07:22:44;3.30;99.90
75091;DHT22;63674;48.048;8.306;2023-12-20T07:25:14;3.30;99.90
75091;DHT22;63674;48.048;8.306;2023-12-20T07:27:43;3.20;99.90
75091;DHT22;63674;48.048;8.306;2023-12-20T07:30:12;3.10;99.90
75091;DHT22;63674;48.048;8.306;2023-12-20T07:32:41;3.20;99.90
75091;DHT22;63674;48.048;8.306;2023-12-20T07:35:09;3.20;99.90
75091;DHT22;63674;48.048;8.306;2023-12-20T07:37:38;3.20;99.90
75091;DHT22;63674;48.048;8.306;2023-12-20T07:40:08;3.10;99.90
75091;DHT22;63674;48.048;8.306;2023-12-20T07:42:38;3.10;99.90
75091;DHT22;63674;48.048;8.306;2023-12-20T07:45:07;3.10;99.90
75091;DHT22;63674;48.048;8.306;2023-12-20T07:47:37;3.10;99.90
75091;DHT22;63674;48.048;8.306;2023-12-20T07:50:08;3.10;99.90
75091;DHT22;63674;48.048;8.306;2023-12-20T07:52:37;3.10;99.90
75091;DHT22;63674;48.048;8.306;2023-12-20T07:55:07;3.10;99.90
75091;DHT22;63674;48.048;8.306;2023-12-20T07:57:36;3.10;99.90
75091;DHT22;63674;48.048;8.306;2023-12-20T08:00:06;3.10;99.90
75091;DHT22;63674;48.048;8.306;2023-12-20T08:02:35;3.20;99.90
75091;DHT22;63674;48.048;8.306;2023-12-20T08:05:05;3.10;99.90
75091;DHT22;63674;48.048;8.306;2023-12-20T08:07:34;3.10;99.90
75091;DHT22;63674;48.048;8.306;2023-12-20T08:10:03;3.10;99.90
75091;DHT22;63674;48.048;8.306;2023-12-20T08:12:32;2.90;99.90
75091;DHT22;63674;48.048;8.306;2023-12-20T08:15:03;3.10;99.90
75091;DHT22;63674;48.048;8.306;2023-12-20T08:17:32;3.10;99.90
75091;DHT22;63674;48.048;8.306;2023-12-20T08:20:01;3.20;99.90
75091;DHT22;63674;48.048;8.306;2023-12-20T08:22:30;3.20;99.90
75091;DHT22;63674;48.048;8.306;2023-12-20T08:24:58;3.20;99.90
75091;DHT22;63674;48.048;8.306;2023-12-20T08:27:27;3.30;99.90
75091;DHT22;63674;48.048;8.306;2023-12-20T08:29:55;3.30;99.90
75091;DHT22;63674;48.048;8.306;2023-12-20T08:32:26;3.40;99.90
75091;DHT22;63674;48.048;8.306;2023-12-20T08:34:55;3.30;99.90
75091;DHT22;63674;48.048;8.306;2023-12-20T08:37:23;3.30;99.90
75091;DHT22;63674;48.048;8.306;2023-12-20T08:39:52;3.30;99.90
75091;DHT22;63674;48.048;8.306;2023-12-20T08:42:21;3.40;99.90
75091;DHT22;63674;48.048;8.306;2023-12-20T08:44:51;3.30;99.90
75091;DHT22;63674;48.048;8.306;2023-12-20T08:47:20;3.30;99.90
75091;DHT22;63674;48.048;8.306;2023-12-20T08:49:50;3.30;99.90
75091;DHT22;63674;48.048;8.306;2023-12-20T08:52:19;3.40;99.90
75091;DHT22;63674;48.048;8.306;2023-12-20T08:54:48;3.40;99.90
75091;DHT22;63674;48.048;8.306;2023-12-20T08:57:19;3.40;99.90
75091;DHT22;63674;48.048;8.306;2023-12-20T08:59:50;3.40;99.90
75091;DHT22;63674;48.048;8.306;2023-12-20T09:02:19;3.40;99.90
75091;DHT22;63674;48.048;8.306;2023-12-20T09:04:47;3.40;99.90
75091;DHT22;63674;48.048;8.306;2023-12-20T09:07:23;3.50;99.90
75091;DHT22;63674;48.048;8.306;2023-12-20T09:09:53;3.50;99.90
75091;DHT22;63674;48.048;8.306;2023-12-20T09:12:22;3.50;99.90
75091;DHT22;63674;48.048;8.306;2023-12-20T09:14:51;3.50;99.90
75091;DHT22;63674;48.048;8.306;2023-12-20T09:17:20;3.40;99.90
75091;DHT22;63674;48.048;8.306;2023-12-20T09:19:50;3.60;99.90
75091;DHT22;63674;48.048;8.306;2023-12-20T09:22:22;3.60;99.90
75091;DHT22;63674;48.048;8.306;2023-12-20T09:24:51;3.60;99.90
75091;DHT22;63674;48.048;8.306;2023-12-20T09:27:20;3.60;99.90
75091;DHT22;63674;48.048;8.306;2023-12-20T09:29:48;3.50;99.90
75091;DHT22;63674;48.048;8.306;2023-12-20T09:32:17;3.50;99.90
75091;DHT22;63674;48.048;8.306;2023-12-20T09:34:47;3.50;99.90
75091;DHT22;63674;48.048;8.306;2023-12-20T09:37:16;3.50;99.90
75091;DHT22;63674;48.048;8.306;2023-12-20T09:39:46;3.50;99.90
75091;DHT22;63674;48.048;8.306;2023-12-20T09:42:20;3.40;99.90
75091;DHT22;63674;48.048;8.306;2023-12-20T09:44:52;3.40;99.90
75091;DHT22;63674;48.048;8.306;2023-12-20T09:47:23;3.40;99.90
75091;DHT22;63674;48.048;8.306;2023-12-20T09:49:52;3.30;99.90
75091;DHT22;63674;48.048;8.306;2023-12-20T09:52:22;3.30;99.90
75091;DHT22;63674;48.048;8.306;2023-12-20T09:54:54;3.30;99.90
75091;DHT22;63674;48.048;8.306;2023-12-20T09:57:24;3.30;99.90
75091;DHT22;63674;48.048;8.306;2023-12-20T09:59:52;3.40;99.90
75091;DHT22;63674;48.048;8.306;2023-12-20T10:02:24;3.40;99.90
75091;DHT22;63674;48.048;8.306;2023-12-20T10:04:54;3.30;99.90
75091;DHT22;63674;48.048;8.306;2023-12-20T10:07:23;3.30;99.90
75091;DHT22;63674;48.048;8.306;2023-12-20T10:09:55;3.30;99.90
75091;DHT22;63674;48.048;8.306;2023-12-20T10:12:24;3.40;99.90
75091;DHT22;63674;48.048;8.306;2023-12-20T10:14:53;3.40;99.90
75091;DHT22;63674;48.048;8.306;2023-12-20T10:17:22;3.40;99.90
75091;DHT22;63674;48.048;8.306;2023-12-20T10:19:51;3.40;99.90
75091;DHT22;63674;48.048;8.306;2023-12-20T10:22:20;3.40;99.90
75091;DHT22;63674;48.048;8.306;2023-12-20T10:24:49;3.40;99.90
75091;DHT22;63674;48.048;8.306;2023-12-20T10:27:19;3.40;99.90
75091;DHT22;63674;48.048;8.306;2023-12-20T10:29:48;3.30;99.90
75091;DHT22;63674;48.048;8.306;2023-12-20T10:32:24;3.30;99.90
75091;DHT22;63674;48.048;8.306;2023-12-20T10:34:55;3.30;99.90
75091;DHT22;63674;48.048;8.306;2023-12-20T10:37:24;3.30;99.90
75091;DHT22;63674;48.048;8.306;2023-12-20T10:39:53;3.40;99.90
75091;DHT22;63674;48.048;8.306;2023-12-20T10:42:27;3.30;99.90
75091;DHT22;63674;48.048;8.306;2023-12-20T10:44:56;3.20;99.90
75091;DHT22;63674;48.048;8.306;2023-12-20T10:47:28;3.10;99.90
75091;DHT22;63674;48.048;8.306;2023-12-20T10:49:59;3.10;99.90
75091;DHT22;63674;48.048;8.306;2023-12-20T10:52:29;3.00;99.90
75091;DHT22;63674;48.048;8.306;2023-12-20T10:55:00;3.00;99.90
75091;DHT22;63674;48.048;8.306;2023-12-20T10:57:30;3.00;99.90
75091;DHT22;63674;48.048;8.306;2023-12-20T11:00:01;3.10;99.90
75091;DHT22;63674;48.048;8.306;2023-12-20T11:02:32;3.00;99.90
75091;DHT22;63674;48.048;8.306;2023-12-20T11:05:10;2.90;99.90
75091;DHT22;63674;48.048;8.306;2023-12-20T11:07:52;2.90;99.90
75091;DHT22;63674;48.048;8.306;2023-12-20T11:10:30;2.90;99.90
75091;DHT22;63674;48.048;8.306;2023-12-20T11:13:06;3.00;99.90
75091;DHT22;63674;48.048;8.306;2023-12-20T11:15:39;2.90;99.90
75091;DHT22;63674;48.048;8.306;2023-12-20T11:18:09;2.90;99.90
75091;DHT22;63674;48.048;8.306;2023-12-20T11:20:39;2.80;99.90
75091;DHT22;63674;48.048;8.306;2023-12-20T11:23:09;2.80;99.90
75091;DHT22;63674;48.048;8.306;2023-12-20T11:25:48;2.80;99.90
75091;DHT22;63674;48.048;8.306;2023-12-20T11:28:21;2.70;99.90
75091;DHT22;63674;48.048;8.306;2023-12-20T11:30:53;2.70;99.90
75091;DHT22;63674;48.048;8.306;2023-12-20T11:33:23;2.70;99.90
75091;DHT22;63674;48.048;8.306;2023-12-20T11:35:57;2.50;99.90
75091;DHT22;63674;48.048;8.306;2023-12-20T11:38:26;2.50;99.90
75091;DHT22;63674;48.048;8.306;2023-12-20T11:40:55;2.60;99.90
75091;DHT22;63674;48.048;8.306;2023-12-20T11:43:34;2.50;99.90
75091;DHT22;63674;48.048;8.306;2023-12-20T11:46:04;2.60;99.90
75091;DHT22;63674;48.048;8.306;2023-12-20T11:48:35;2.50;99.90
75091;DHT22;63674;48.048;8.306;2023-12-20T11:51:09;2.40;99.90
75091;DHT22;63674;48.048;8.306;2023-12-20T11:53:38;2.40;99.90
75091;DHT22;63674;48.048;8.306;2023-12-20T11:56:07;2.50;99.90
75091;DHT22;63674;48.048;8.306;2023-12-20T11:58:37;3.10;99.90
75091;DHT22;63674;48.048;8.306;2023-12-20T12:01:06;2.50;99.90
75091;DHT22;63674;48.048;8.306;2023-12-20T12:03:36;2.50;99.90
75091;DHT22;63674;48.048;8.306;2023-12-20T12:06:05;2.50;99.90
75091;DHT22;63674;48.048;8.306;2023-12-20T12:08:35;2.50;99.90
75091;DHT22;63674;48.048;8.306;2023-12-20T12:11:05;2.50;99.90
75091;DHT22;63674;48.048;8.306;2023-12-20T12:13:34;2.50;99.90
75091;DHT22;63674;48.048;8.306;2023-12-20T12:16:05;2.40;99.90
75091;DHT22;63674;48.048;8.306;2023-12-20T12:18:34;2.40;99.90
75091;DHT22;63674;48.048;8.306;2023-12-20T12:21:04;2.40;99.90
75091;DHT22;63674;48.048;8.306;2023-12-20T12:23:41;2.40;99.90
75091;DHT22;63674;48.048;8.306;2023-12-20T12:26:09;2.50;99.90
75091;DHT22;63674;48.048;8.306;2023-12-20T12:28:40;2.50;99.90
75091;DHT22;63674;48.048;8.306;2023-12-20T12:31:13;2.50;99.90
75091;DHT22;63674;48.048;8.306;2023-12-20T12:33:43;2.50;99.90
75091;DHT22;63674;48.048;8.306;2023-12-20T12:36:12;2.50;99.90
75091;DHT22;63674;48.048;8.306;2023-12-20T12:38:43;2.50;99.90
75091;DHT22;63674;48.048;8.306;2023-12-20T12:41:13;2.50;99.90
75091;DHT22;63674;48.048;8.306;2023-12-20T12:43:42;2.40;99.90
75091;DHT22;63674;48.048;8.306;2023-12-20T12:46:12;2.30;99.90
75091;DHT22;63674;48.048;8.306;2023-12-20T12:48:40;2.30;99.90
75091;DHT22;63674;48.048;8.306;2023-12-20T12:51:13;2.20;99.90
75091;DHT22;63674;48.048;8.306;2023-12-20T12:53:41;2.30;99.90
75091;DHT22;63674;48.048;8.306;2023-12-20T12:56:10;2.30;99.90
75091;DHT22;63674;48.048;8.306;2023-12-20T12:58:41;2.30;99.90
75091;DHT22;63674;48.048;8.306;2023-12-20T13:01:09;2.30;99.90
75091;DHT22;63674;48.048;8.306;2023-12-20T13:03:39;2.30;99.90
75091;DHT22;63674;48.048;8.306;2023-12-20T13:06:08;2.40;99.90
75091;DHT22;63674;48.048;8.306;2023-12-20T13:08:37;2.60;99.90
75091;DHT22;63674;48.048;8.306;2023-12-20T13:11:05;2.60;99.90
75091;DHT22;63674;48.048;8.306;2023-12-20T13:13:34;2.60;99.90
75091;DHT22;63674;48.048;8.306;2023-12-20T13:16:04;2.50;99.90
75091;DHT22;63674;48.048;8.306;2023-12-20T13:18:34;2.40;99.90
75091;DHT22;63674;48.048;8.306;2023-12-20T13:21:03;2.50;99.90
75091;DHT22;63674;48.048;8.306;2023-12-20T13:23:32;2.40;99.90
75091;DHT22;63674;48.048;8.306;2023-12-20T13:26:04;2.40;99.90
75091;DHT22;63674;48.048;8.306;2023-12-20T13:28:34;2.40;99.90
75091;DHT22;63674;48.048;8.306;2023-12-20T13:31:03;2.30;99.90
75091;DHT22;63674;48.048;8.306;2023-12-20T13:33:33;2.30;99.90
75091;DHT22;63674;48.048;8.306;2023-12-20T13:36:02;2.30;99.90
75091;DHT22;63674;48.048;8.306;2023-12-20T13:38:34;2.20;99.90
75091;DHT22;63674;48.048;8.306;2023-12-20T13:41:03;2.20;99.90
75091;DHT22;63674;48.048;8.306;2023-12-20T13:43:31;2.30;99.90
75091;DHT22;63674;48.048;8.306;2023-12-20T13:46:01;2.30;99.90
75091;DHT22;63674;48.048;8.306;2023-12-20T13:48:30;2.30;99.90
75091;DHT22;63674;48.048;8.306;2023-12-20T13:51:00;2.40;99.90
75091;DHT22;63674;48.048;8.306;2023-12-20T13:53:29;2.30;99.90
75091;DHT22;63674;48.048;8.306;2023-12-20T13:55:58;2.40;99.90
75091;DHT22;63674;48.048;8.306;2023-12-20T13:58:27;2.40;99.90
75091;DHT22;63674;48.048;8.306;2023-12-20T14:00:55;2.40;99.90
75091;DHT22;63674;48.048;8.306;2023-12-20T14:03:23;2.40;99.90
75091;DHT22;63674;48.048;8.306;2023-12-20T14:05:51;2.40;99.90
75091;DHT22;63674;48.048;8.306;2023-12-20T14:08:21;2.40;99.90
75091;DHT22;63674;48.048;8.306;2023-12-20T14:10:51;2.50;99.90
75091;DHT22;63674;48.048;8.306;2023-12-20T14:13:19;2.50;99.90
75091;DHT22;63674;48.048;8.306;2023-12-20T14:15:48;2.50;99.90
75091;DHT22;63674;48.048;8.306;2023-12-20T14:18:17;2.60;99.90
75091;DHT22;63674;48.048;8.306;2023-12-20T14:20:46;2.50;99.90
75091;DHT22;63674;48.048;8.306;2023-12-20T14:23:17;2.60;99.90
75091;DHT22;63674;48.048;8.306;2023-12-20T14:25:47;2.60;99.90
75091;DHT22;63674;48.048;8.306;2023-12-20T14:28:19;2.50;99.90
75091;DHT22;63674;48.048;8.306;2023-12-20T14:30:48;2.50;99.90
75091;DHT22;63674;48.048;8.306;2023-12-20T14:33:17;2.60;99.90
75091;DHT22;63674;48.048;8.306;2023-12-20T14:35:47;2.50;99.90
75091;DHT22;63674;48.048;8.306;2023-12-20T14:38:16;2.50;99.90
75091;DHT22;63674;48.048;8.306;2023-12-20T14:40:47;2.50;99.90
75091;DHT22;63674;48.048;8.306;2023-12-20T14:43:15;2.50;99.90
75091;DHT22;63674;48.048;8.306;2023-12-20T14:45:45;2.40;99.90
75091;DHT22;63674;48.048;8.306;2023-12-20T14:48:13;2.40;99.90
75091;DHT22;63674;48.048;8.306;2023-12-20T14:50:43;2.40;99.90
75091;DHT22;63674;48.048;8.306;2023-12-20T14:53:14;2.40;99.90
75091;DHT22;63674;48.048;8.306;2023-12-20T14:55:48;2.40;99.90
75091;DHT22;63674;48.048;8.306;2023-12-20T14:58:17;2.40;99.90
75091;DHT22;63674;48.048;8.306;2023-12-20T15:00:46;2.40;99.90
75091;DHT22;63674;48.048;8.306;2023-12-20T15:03:15;2.40;99.90
75091;DHT22;63674;48.048;8.306;2023-12-20T15:05:44;2.50;99.90
75091;DHT22;63674;48.048;8.306;2023-12-20T15:08:15;2.40;99.90
75091;DHT22;63674;48.048;8.306;2023-12-20T15:10:43;2.30;99.90
75091;DHT22;63674;48.048;8.306;2023-12-20T15:13:13;2.40;99.90
75091;DHT22;63674;48.048;8.306;2023-12-20T15:15:42;2.40;99.90
75091;DHT22;63674;48.048;8.306;2023-12-20T15:18:13;2.40;99.90
75091;DHT22;63674;48.048;8.306;2023-12-20T15:20:42;2.30;99.90
75091;DHT22;63674;48.048;8.306;2023-12-20T15:23:12;2.30;99.90
75091;DHT22;63674;48.048;8.306;2023-12-20T15:25:40;2.30;99.90
75091;DHT22;63674;48.048;8.306;2023-12-20T15:28:09;2.30;99.90
75091;DHT22;63674;48.048;8.306;2023-12-20T15:30:39;2.30;99.90
75091;DHT22;63674;48.048;8.306;2023-12-20T15:33:08;2.30;99.90
75091;DHT22;63674;48.048;8.306;2023-12-20T15:35:37;2.40;99.90
75091;DHT22;63674;48.048;8.306;2023-12-20T15:38:06;2.40;99.90
75091;DHT22;63674;48.048;8.306;2023-12-20T15:40:35;2.40;99.90
75091;DHT22;63674;48.048;8.306;2023-12-20T15:43:04;2.40;99.90
75091;DHT22;63674;48.048;8.306;2023-12-20T15:45:32;2.30;99.90
75091;DHT22;63674;48.048;8.306;2023-12-20T15:48:03;2.30;99.90
75091;DHT22;63674;48.048;8.306;2023-12-20T15:50:31;2.30;99.90
75091;DHT22;63674;48.048;8.306;2023-12-20T15:53:00;2.30;99.90
75091;DHT22;63674;48.048;8.306;2023-12-20T15:55:30;2.30;99.90
75091;DHT22;63674;48.048;8.306;2023-12-20T15:57:59;2.30;99.90
75091;DHT22;63674;48.048;8.306;2023-12-20T16:00:28;2.30;99.90
75091;DHT22;63674;48.048;8.306;2023-12-20T16:02:57;2.30;99.90
75091;DHT22;63674;48.048;8.306;2023-12-20T16:05:27;2.20;99.90
75091;DHT22;63674;48.048;8.306;2023-12-20T16:07:56;2.20;99.90